UPS241 KBFI-KONT
Flight info
| Callsign | UPS241 |
|---|---|
| Flight time | N/A |
| Altitude | 39000 |
| Route | ZIGED TAOMA J5 SUMMA PAAGE Q11 PUSHH PASKE TTE ZIGGY8 |
| Aircraft | MD11/H-SDE1E2E3FGHIJ2J3J4J5M1RWXY/LB1D1 |
Departure
| Time | 2026-05-06 14:34 |
|---|---|
| Airport | King County International Airport - Boeing Field (KBFI) |
Arrival
| Time | N/A |
|---|---|
| Airport | Ontario International Airport (KONT) |
| Time | Latitude | Longitude | Altitude | Speed | Heading |
|---|---|---|---|---|---|
| 2026-05-06 14:10 | 47.53471 | -122.30235 | 28 ft | 0 kts | 59° |
| 2026-05-06 14:16 | 47.53464 | -122.30250 | 28 ft | 2 kts | 49° |
| 2026-05-06 14:16 | 47.53453 | -122.30264 | 27 ft | 2 kts | 34° |
| 2026-05-06 14:17 | 47.53440 | -122.30274 | 27 ft | 2 kts | 21° |
| 2026-05-06 14:17 | 47.53427 | -122.30280 | 27 ft | 2 kts | 8° |
| 2026-05-06 14:17 | 47.53412 | -122.30281 | 26 ft | 2 kts | 355° |
| 2026-05-06 14:17 | 47.53398 | -122.30278 | 26 ft | 2 kts | 342° |
| 2026-05-06 14:18 | 47.53397 | -122.30277 | 26 ft | 2 kts | 341° |
| 2026-05-06 14:18 | 47.53387 | -122.30271 | 26 ft | 2 kts | 332° |
| 2026-05-06 14:18 | 47.53375 | -122.30260 | 26 ft | 2 kts | 328° |
| 2026-05-06 14:19 | 47.53363 | -122.30250 | 26 ft | 2 kts | 330° |
| 2026-05-06 14:19 | 47.53352 | -122.30241 | 26 ft | 2 kts | 330° |
| 2026-05-06 14:19 | 47.53348 | -122.30237 | 26 ft | 2 kts | 330° |
| 2026-05-06 14:19 | 47.53345 | -122.30235 | 26 ft | 2 kts | 330° |
| 2026-05-06 14:20 | 47.53334 | -122.30225 | 26 ft | 2 kts | 330° |
| 2026-05-06 14:20 | 47.53322 | -122.30215 | 26 ft | 2 kts | 330° |
| 2026-05-06 14:20 | 47.53317 | -122.30211 | 26 ft | 0 kts | 330° |
| 2026-05-06 14:24 | 47.53317 | -122.30212 | 26 ft | 0 kts | 330° |
| 2026-05-06 14:24 | 47.53326 | -122.30218 | 26 ft | 2 kts | 330° |
| 2026-05-06 14:24 | 47.53347 | -122.30236 | 26 ft | 4 kts | 329° |
| 2026-05-06 14:25 | 47.53371 | -122.30276 | 25 ft | 7 kts | 298° |
| 2026-05-06 14:25 | 47.53384 | -122.30357 | 24 ft | 11 kts | 279° |
| 2026-05-06 14:25 | 47.53390 | -122.30474 | 23 ft | 13 kts | 271° |
| 2026-05-06 14:25 | 47.53389 | -122.30579 | 23 ft | 8 kts | 265° |
| 2026-05-06 14:26 | 47.53369 | -122.30659 | 21 ft | 3 kts | 250° |
| 2026-05-06 14:26 | 47.53373 | -122.30698 | 20 ft | 5 kts | 297° |
| 2026-05-06 14:26 | 47.53410 | -122.30737 | 20 ft | 8 kts | 331° |
| 2026-05-06 14:26 | 47.53464 | -122.30782 | 21 ft | 10 kts | 331° |
| 2026-05-06 14:27 | 47.53531 | -122.30837 | 21 ft | 12 kts | 329° |
| 2026-05-06 14:27 | 47.53605 | -122.30905 | 21 ft | 15 kts | 328° |
| 2026-05-06 14:27 | 47.53693 | -122.30982 | 21 ft | 16 kts | 330° |
| 2026-05-06 14:27 | 47.53789 | -122.31062 | 22 ft | 18 kts | 330° |
| 2026-05-06 14:28 | 47.53865 | -122.31128 | 22 ft | 10 kts | 330° |
| 2026-05-06 14:28 | 47.53921 | -122.31177 | 22 ft | 3 kts | 330° |
| 2026-05-06 14:28 | 47.53922 | -122.31177 | 22 ft | 0 kts | 330° |
| 2026-05-06 14:30 | 47.53923 | -122.31177 | 22 ft | 0 kts | 330° |
| 2026-05-06 14:30 | 47.53929 | -122.31183 | 22 ft | 1 kts | 330° |
| 2026-05-06 14:31 | 47.53941 | -122.31194 | 22 ft | 2 kts | 330° |
| 2026-05-06 14:31 | 47.53958 | -122.31208 | 23 ft | 3 kts | 330° |
| 2026-05-06 14:31 | 47.53972 | -122.31211 | 23 ft | 2 kts | 4° |
| 2026-05-06 14:31 | 47.53993 | -122.31203 | 23 ft | 3 kts | 18° |
| 2026-05-06 14:32 | 47.54011 | -122.31181 | 24 ft | 4 kts | 59° |
| 2026-05-06 14:32 | 47.54024 | -122.31140 | 24 ft | 2 kts | 85° |
| 2026-05-06 14:32 | 47.54012 | -122.31113 | 24 ft | 5 kts | 134° |
| 2026-05-06 14:32 | 47.53985 | -122.31082 | 24 ft | 0 kts | 146° |
| 2026-05-06 14:33 | 47.53930 | -122.31029 | 24 ft | 30 kts | 149° |
| 2026-05-06 14:34 | 47.53482 | -122.30658 | 24 ft | 123 kts | 152° |
| 2026-05-06 14:34 | 47.52483 | -122.29830 | 74 ft | 198 kts | 152° |
| 2026-05-06 14:34 | 47.51373 | -122.28878 | 1361 ft | 185 kts | 150° |
| 2026-05-06 14:34 | 47.50300 | -122.27928 | 2319 ft | 193 kts | 149° |
| 2026-05-06 14:35 | 47.49083 | -122.26838 | 2885 ft | 221 kts | 150° |
| 2026-05-06 14:35 | 47.47662 | -122.25690 | 3828 ft | 237 kts | 155° |
| 2026-05-06 14:35 | 47.46225 | -122.24592 | 4917 ft | 248 kts | 151° |
| 2026-05-06 14:35 | 47.44717 | -122.23283 | 5929 ft | 264 kts | 152° |
| 2026-05-06 14:36 | 47.43111 | -122.21903 | 7017 ft | 276 kts | 152° |
| 2026-05-06 14:36 | 47.41495 | -122.20522 | 8395 ft | 277 kts | 152° |
| 2026-05-06 14:36 | 47.39767 | -122.19082 | 9376 ft | 294 kts | 152° |
| 2026-05-06 14:36 | 47.37978 | -122.17596 | 10408 ft | 307 kts | 152° |
| 2026-05-06 14:37 | 47.36055 | -122.15976 | 10991 ft | 337 kts | 151° |
| 2026-05-06 14:37 | 47.33912 | -122.14235 | 11467 ft | 368 kts | 157° |
| 2026-05-06 14:37 | 47.31410 | -122.12972 | 12162 ft | 387 kts | 170° |
| 2026-05-06 14:37 | 47.28756 | -122.12518 | 13156 ft | 394 kts | 181° |
| 2026-05-06 14:38 | 47.25985 | -122.12458 | 14346 ft | 399 kts | 182° |
| 2026-05-06 14:38 | 47.23231 | -122.12391 | 15478 ft | 405 kts | 182° |
| 2026-05-06 14:38 | 47.20421 | -122.12275 | 16580 ft | 410 kts | 181° |
| 2026-05-06 14:38 | 47.17564 | -122.12130 | 17648 ft | 416 kts | 181° |
| 2026-05-06 14:39 | 47.14681 | -122.11969 | 18668 ft | 421 kts | 181° |
| 2026-05-06 14:39 | 47.11746 | -122.11799 | 19636 ft | 427 kts | 181° |
| 2026-05-06 14:39 | 47.08779 | -122.11626 | 20507 ft | 434 kts | 181° |
| 2026-05-06 14:39 | 47.05761 | -122.11445 | 21410 ft | 440 kts | 181° |
| 2026-05-06 14:40 | 47.02700 | -122.11265 | 22267 ft | 446 kts | 181° |
| 2026-05-06 14:40 | 46.99599 | -122.11080 | 23112 ft | 452 kts | 181° |
| 2026-05-06 14:40 | 46.96446 | -122.10890 | 23966 ft | 458 kts | 181° |
| 2026-05-06 14:40 | 46.93261 | -122.10545 | 24768 ft | 466 kts | 177° |
| 2026-05-06 14:41 | 46.90020 | -122.09834 | 25563 ft | 475 kts | 172° |
| 2026-05-06 14:41 | 46.86826 | -122.08691 | 26341 ft | 482 kts | 168° |
| 2026-05-06 14:41 | 46.83620 | -122.07395 | 27255 ft | 484 kts | 168° |
| 2026-05-06 14:41 | 46.80447 | -122.06113 | 27997 ft | 490 kts | 168° |
| 2026-05-06 14:42 | 46.77315 | -122.04862 | 28726 ft | 494 kts | 168° |
| 2026-05-06 14:42 | 46.74028 | -122.03561 | 29423 ft | 500 kts | 168° |
| 2026-05-06 14:42 | 46.70645 | -122.02228 | 30082 ft | 505 kts | 168° |
| 2026-05-06 14:42 | 46.67259 | -122.00896 | 30713 ft | 510 kts | 168° |
| 2026-05-06 14:43 | 46.63867 | -121.99345 | 31627 ft | 510 kts | 162° |
| 2026-05-06 14:43 | 46.60695 | -121.97176 | 32444 ft | 513 kts | 153° |
| 2026-05-06 14:43 | 46.57722 | -121.94286 | 33239 ft | 514 kts | 144° |
| 2026-05-06 14:43 | 46.55024 | -121.90892 | 33977 ft | 514 kts | 140° |
| 2026-05-06 14:44 | 46.52398 | -121.87408 | 34804 ft | 512 kts | 140° |
| 2026-05-06 14:44 | 46.49785 | -121.84010 | 35582 ft | 509 kts | 141° |
| 2026-05-06 14:44 | 46.47155 | -121.80657 | 36279 ft | 507 kts | 141° |
| 2026-05-06 14:45 | 46.41512 | -121.74715 | 37340 ft | 499 kts | 157° |
| 2026-05-06 14:45 | 46.38335 | -121.72781 | 37789 ft | 494 kts | 166° |
| 2026-05-06 14:45 | 46.35036 | -121.71635 | 38196 ft | 488 kts | 176° |
| 2026-05-06 14:45 | 46.31694 | -121.71100 | 38709 ft | 483 kts | 179° |
| 2026-05-06 14:46 | 46.28373 | -121.70569 | 39120 ft | 483 kts | 177° |
| 2026-05-06 14:46 | 46.21731 | -121.69106 | 39130 ft | 482 kts | 175° |
| 2026-05-06 14:47 | 46.15154 | -121.67438 | 39136 ft | 486 kts | 174° |
| 2026-05-06 14:47 | 46.08470 | -121.65688 | 39113 ft | 488 kts | 174° |
| 2026-05-06 14:48 | 46.01816 | -121.63944 | 39085 ft | 489 kts | 174° |
| 2026-05-06 14:48 | 45.95158 | -121.62199 | 39085 ft | 489 kts | 174° |
| 2026-05-06 14:49 | 45.88477 | -121.60451 | 39089 ft | 489 kts | 174° |
| 2026-05-06 14:49 | 45.81813 | -121.58707 | 39092 ft | 489 kts | 174° |
| 2026-05-06 14:50 | 45.75128 | -121.56957 | 39100 ft | 489 kts | 174° |
| 2026-05-06 14:50 | 45.68467 | -121.55214 | 39101 ft | 490 kts | 174° |
| 2026-05-06 14:51 | 45.61763 | -121.53460 | 39090 ft | 492 kts | 173° |
| 2026-05-06 14:51 | 45.55036 | -121.51696 | 39084 ft | 492 kts | 173° |
| 2026-05-06 14:52 | 45.48301 | -121.49983 | 39105 ft | 492 kts | 174° |
| 2026-05-06 14:52 | 45.41558 | -121.48280 | 39106 ft | 493 kts | 173° |
| 2026-05-06 14:53 | 45.34856 | -121.46573 | 39108 ft | 493 kts | 173° |
| 2026-05-06 14:53 | 45.28102 | -121.44854 | 39090 ft | 494 kts | 173° |
| 2026-05-06 14:54 | 45.21367 | -121.43142 | 39101 ft | 494 kts | 173° |
| 2026-05-06 14:54 | 45.14604 | -121.41424 | 39101 ft | 495 kts | 173° |
| 2026-05-06 14:55 | 45.07827 | -121.39701 | 39096 ft | 495 kts | 173° |
| 2026-05-06 14:55 | 45.01085 | -121.37988 | 39091 ft | 496 kts | 173° |
| 2026-05-06 14:56 | 44.94302 | -121.36265 | 39096 ft | 495 kts | 173° |
| 2026-05-06 14:56 | 44.87529 | -121.34543 | 39086 ft | 496 kts | 173° |
| 2026-05-06 14:57 | 44.80751 | -121.32820 | 39086 ft | 497 kts | 173° |
| 2026-05-06 14:57 | 44.73957 | -121.31094 | 39092 ft | 497 kts | 173° |
| 2026-05-06 14:58 | 44.67168 | -121.29407 | 39095 ft | 496 kts | 173° |
| 2026-05-06 14:58 | 44.60419 | -121.27750 | 39107 ft | 497 kts | 173° |
| 2026-05-06 14:59 | 44.53593 | -121.26063 | 39118 ft | 498 kts | 173° |
| 2026-05-06 14:59 | 44.46813 | -121.24388 | 39118 ft | 499 kts | 173° |
| 2026-05-06 15:00 | 44.40001 | -121.22705 | 39105 ft | 499 kts | 173° |
| 2026-05-06 15:00 | 44.33174 | -121.21019 | 39105 ft | 500 kts | 173° |
| 2026-05-06 15:01 | 44.26348 | -121.19335 | 39104 ft | 499 kts | 173° |
| 2026-05-06 15:01 | 44.19516 | -121.17646 | 39108 ft | 499 kts | 173° |
| 2026-05-06 15:02 | 44.12669 | -121.15956 | 39114 ft | 500 kts | 172° |
| 2026-05-06 15:02 | 44.05840 | -121.14268 | 39120 ft | 500 kts | 173° |
| 2026-05-06 15:03 | 43.99027 | -121.12588 | 39130 ft | 500 kts | 172° |
| 2026-05-06 15:03 | 43.92194 | -121.10900 | 39154 ft | 500 kts | 172° |
| 2026-05-06 15:04 | 43.85357 | -121.09234 | 39201 ft | 500 kts | 173° |
| 2026-05-06 15:04 | 43.78476 | -121.07594 | 39217 ft | 501 kts | 172° |
| 2026-05-06 15:05 | 43.71641 | -121.05952 | 39221 ft | 501 kts | 172° |
| 2026-05-06 15:05 | 43.64782 | -121.04301 | 39210 ft | 502 kts | 172° |
| 2026-05-06 15:06 | 43.57923 | -121.02651 | 39202 ft | 502 kts | 172° |
| 2026-05-06 15:06 | 43.51037 | -121.00996 | 39207 ft | 502 kts | 172° |
| 2026-05-06 15:07 | 43.44201 | -120.99354 | 39205 ft | 503 kts | 172° |
| 2026-05-06 15:07 | 43.37316 | -120.97697 | 39213 ft | 503 kts | 172° |
| 2026-05-06 15:08 | 43.30402 | -120.96037 | 39217 ft | 503 kts | 172° |
| 2026-05-06 15:08 | 43.23560 | -120.94394 | 39210 ft | 504 kts | 171° |
| 2026-05-06 15:09 | 43.16622 | -120.92727 | 39202 ft | 505 kts | 171° |
| 2026-05-06 15:09 | 43.09747 | -120.91063 | 39209 ft | 505 kts | 171° |
| 2026-05-06 15:10 | 43.02842 | -120.89393 | 39208 ft | 505 kts | 171° |
| 2026-05-06 15:10 | 42.95914 | -120.87722 | 39214 ft | 505 kts | 171° |
| 2026-05-06 15:11 | 42.89045 | -120.86063 | 39212 ft | 505 kts | 171° |
| 2026-05-06 15:11 | 42.82155 | -120.84399 | 39211 ft | 505 kts | 171° |
| 2026-05-06 15:12 | 42.75244 | -120.82729 | 39207 ft | 506 kts | 171° |
| 2026-05-06 15:12 | 42.68293 | -120.81051 | 39217 ft | 506 kts | 170° |
| 2026-05-06 15:13 | 42.61388 | -120.79380 | 39227 ft | 507 kts | 170° |
| 2026-05-06 15:13 | 42.54455 | -120.77706 | 39229 ft | 507 kts | 170° |
| 2026-05-06 15:14 | 42.47510 | -120.76027 | 39229 ft | 507 kts | 170° |
| 2026-05-06 15:14 | 42.40565 | -120.74349 | 39233 ft | 508 kts | 170° |
| 2026-05-06 15:15 | 42.33658 | -120.72687 | 39230 ft | 508 kts | 170° |
| 2026-05-06 15:15 | 42.26662 | -120.71052 | 39235 ft | 509 kts | 170° |
| 2026-05-06 15:16 | 42.19723 | -120.69425 | 39234 ft | 508 kts | 170° |
| 2026-05-06 15:16 | 42.12770 | -120.67786 | 39234 ft | 508 kts | 170° |
| 2026-05-06 15:17 | 42.05827 | -120.66150 | 39241 ft | 509 kts | 169° |
| 2026-05-06 15:17 | 41.98886 | -120.64516 | 39237 ft | 510 kts | 169° |
| 2026-05-06 15:18 | 41.91903 | -120.62874 | 39237 ft | 510 kts | 169° |
| 2026-05-06 15:18 | 41.84913 | -120.61230 | 39238 ft | 510 kts | 169° |
| 2026-05-06 15:19 | 41.77959 | -120.59595 | 39236 ft | 510 kts | 169° |
| 2026-05-06 15:19 | 41.70935 | -120.57942 | 39232 ft | 510 kts | 169° |
| 2026-05-06 15:20 | 41.63963 | -120.56301 | 39241 ft | 510 kts | 169° |
| 2026-05-06 15:20 | 41.56998 | -120.54662 | 39210 ft | 511 kts | 169° |
| 2026-05-06 15:21 | 41.50031 | -120.53033 | 39163 ft | 510 kts | 169° |
| 2026-05-06 15:21 | 41.43025 | -120.51431 | 39187 ft | 510 kts | 169° |
| 2026-05-06 15:22 | 41.36085 | -120.49833 | 39214 ft | 511 kts | 169° |
| 2026-05-06 15:22 | 41.29082 | -120.48215 | 39244 ft | 512 kts | 169° |
| 2026-05-06 15:23 | 41.22047 | -120.46596 | 39244 ft | 512 kts | 169° |
| 2026-05-06 15:23 | 41.15074 | -120.44988 | 39246 ft | 512 kts | 169° |
| 2026-05-06 15:24 | 41.08060 | -120.43373 | 39243 ft | 512 kts | 168° |
| 2026-05-06 15:24 | 41.01079 | -120.41754 | 39249 ft | 512 kts | 168° |
| 2026-05-06 15:25 | 40.94107 | -120.39729 | 39252 ft | 512 kts | 164° |
| 2026-05-06 15:25 | 40.87212 | -120.37543 | 39248 ft | 512 kts | 165° |
| 2026-05-06 15:26 | 40.80270 | -120.35392 | 39251 ft | 512 kts | 165° |
| 2026-05-06 15:26 | 40.73375 | -120.33268 | 39255 ft | 512 kts | 165° |
| 2026-05-06 15:27 | 40.66437 | -120.31136 | 39251 ft | 512 kts | 165° |
| 2026-05-06 15:27 | 40.59527 | -120.29013 | 39250 ft | 512 kts | 165° |
| 2026-05-06 15:28 | 40.52585 | -120.26878 | 39235 ft | 513 kts | 165° |
| 2026-05-06 15:28 | 40.45636 | -120.24743 | 39225 ft | 513 kts | 165° |
| 2026-05-06 15:29 | 40.38726 | -120.22617 | 39225 ft | 513 kts | 165° |
| 2026-05-06 15:29 | 40.31766 | -120.20480 | 39221 ft | 513 kts | 165° |
| 2026-05-06 15:30 | 40.24843 | -120.18351 | 39216 ft | 513 kts | 165° |
| 2026-05-06 15:30 | 40.17930 | -120.16225 | 39227 ft | 513 kts | 165° |
| 2026-05-06 15:31 | 40.10970 | -120.14112 | 39232 ft | 513 kts | 165° |
| 2026-05-06 15:31 | 40.04054 | -120.12054 | 39236 ft | 513 kts | 165° |
| 2026-05-06 15:32 | 39.93620 | -120.08923 | 39244 ft | 514 kts | 165° |
| 2026-05-06 15:32 | 39.86672 | -120.06836 | 39244 ft | 514 kts | 165° |
| 2026-05-06 15:33 | 39.79684 | -120.04743 | 39243 ft | 515 kts | 165° |
| 2026-05-06 15:33 | 39.72738 | -120.02657 | 39236 ft | 515 kts | 165° |
| 2026-05-06 15:34 | 39.65760 | -120.00565 | 39224 ft | 515 kts | 165° |
| 2026-05-06 15:34 | 39.58818 | -119.98484 | 39202 ft | 515 kts | 164° |
| 2026-05-06 15:35 | 39.51867 | -119.96396 | 39192 ft | 514 kts | 164° |
| 2026-05-06 15:35 | 39.44920 | -119.94315 | 39191 ft | 514 kts | 164° |
| 2026-05-06 15:36 | 39.37931 | -119.92218 | 39182 ft | 514 kts | 164° |
| 2026-05-06 15:36 | 39.30991 | -119.90152 | 39194 ft | 514 kts | 164° |
| 2026-05-06 15:37 | 39.24010 | -119.88123 | 39188 ft | 515 kts | 164° |
| 2026-05-06 15:37 | 39.17057 | -119.86089 | 39191 ft | 515 kts | 164° |
| 2026-05-06 15:38 | 39.10079 | -119.84041 | 39200 ft | 514 kts | 164° |
| 2026-05-06 15:38 | 39.03124 | -119.82003 | 39201 ft | 513 kts | 163° |
| 2026-05-06 15:39 | 38.96189 | -119.79971 | 39184 ft | 513 kts | 163° |
| 2026-05-06 15:39 | 38.89230 | -119.77933 | 39203 ft | 513 kts | 163° |
| 2026-05-06 15:40 | 38.82268 | -119.75894 | 39242 ft | 515 kts | 163° |
| 2026-05-06 15:40 | 38.75265 | -119.73843 | 39259 ft | 515 kts | 163° |
| 2026-05-06 15:41 | 38.68324 | -119.71810 | 39256 ft | 514 kts | 163° |
| 2026-05-06 15:41 | 38.61354 | -119.69769 | 39267 ft | 513 kts | 163° |
| 2026-05-06 15:42 | 38.54407 | -119.67731 | 39274 ft | 513 kts | 163° |
| 2026-05-06 15:42 | 38.47469 | -119.65725 | 39281 ft | 513 kts | 163° |
| 2026-05-06 15:43 | 38.40512 | -119.63723 | 39289 ft | 514 kts | 163° |
| 2026-05-06 15:43 | 38.33566 | -119.61720 | 39293 ft | 513 kts | 163° |
| 2026-05-06 15:44 | 38.26610 | -119.59734 | 39310 ft | 513 kts | 163° |
| 2026-05-06 15:44 | 38.19649 | -119.57792 | 39313 ft | 513 kts | 163° |
| 2026-05-06 15:45 | 38.12686 | -119.55828 | 39309 ft | 513 kts | 163° |
| 2026-05-06 15:45 | 38.05741 | -119.53868 | 39320 ft | 513 kts | 163° |
| 2026-05-06 15:46 | 37.98762 | -119.51905 | 39329 ft | 512 kts | 163° |
| 2026-05-06 15:46 | 37.91852 | -119.49961 | 39318 ft | 512 kts | 163° |
| 2026-05-06 15:47 | 37.84909 | -119.48005 | 39312 ft | 512 kts | 163° |
| 2026-05-06 15:47 | 37.77944 | -119.46046 | 39313 ft | 512 kts | 162° |
| 2026-05-06 15:48 | 37.71023 | -119.44099 | 39308 ft | 511 kts | 162° |
| 2026-05-06 15:48 | 37.64103 | -119.42145 | 39309 ft | 511 kts | 162° |
| 2026-05-06 15:49 | 37.57162 | -119.40194 | 39305 ft | 510 kts | 162° |
| 2026-05-06 15:49 | 37.50261 | -119.38251 | 39295 ft | 511 kts | 162° |
| 2026-05-06 15:50 | 37.43301 | -119.36331 | 39289 ft | 511 kts | 162° |
| 2026-05-06 15:50 | 37.36362 | -119.34426 | 39274 ft | 510 kts | 163° |
| 2026-05-06 15:51 | 37.29477 | -119.32529 | 39268 ft | 510 kts | 163° |
| 2026-05-06 15:51 | 37.22552 | -119.30621 | 39264 ft | 510 kts | 163° |
| 2026-05-06 15:52 | 37.15644 | -119.28722 | 39253 ft | 510 kts | 163° |
| 2026-05-06 15:52 | 37.08694 | -119.26807 | 39240 ft | 509 kts | 163° |
| 2026-05-06 15:53 | 37.01799 | -119.24908 | 39219 ft | 509 kts | 163° |
| 2026-05-06 15:53 | 36.94912 | -119.23013 | 39202 ft | 509 kts | 163° |
| 2026-05-06 15:54 | 36.88002 | -119.21109 | 39192 ft | 510 kts | 163° |
| 2026-05-06 15:54 | 36.81074 | -119.19204 | 39187 ft | 509 kts | 162° |
| 2026-05-06 15:55 | 36.74200 | -119.17310 | 39186 ft | 509 kts | 162° |
| 2026-05-06 15:55 | 36.67287 | -119.15408 | 39179 ft | 508 kts | 162° |
| 2026-05-06 15:56 | 36.60401 | -119.13551 | 39159 ft | 508 kts | 162° |
| 2026-05-06 15:56 | 36.53471 | -119.11680 | 39146 ft | 508 kts | 163° |
| 2026-05-06 15:57 | 36.46602 | -119.09822 | 39123 ft | 508 kts | 162° |
| 2026-05-06 15:57 | 36.39698 | -119.07952 | 39124 ft | 508 kts | 162° |
| 2026-05-06 15:58 | 36.32797 | -119.06085 | 39131 ft | 508 kts | 162° |